createdAt,value
2019-03-18T00:00:01.568Z,99.90
2019-03-18T00:02:29.917Z,99.90
2019-03-18T00:04:57.872Z,99.90
2019-03-18T00:07:26.258Z,99.90
2019-03-18T00:09:54.331Z,99.90
2019-03-18T00:12:22.412Z,99.90
2019-03-18T00:15:00.743Z,99.90
2019-03-18T00:17:20.115Z,99.90
2019-03-18T00:19:47.941Z,99.90
2019-03-18T00:22:16.147Z,99.90
2019-03-18T00:24:44.050Z,99.90
2019-03-18T00:27:12.162Z,99.90
2019-03-18T00:29:40.288Z,99.90
2019-03-18T00:32:08.306Z,99.90
2019-03-18T00:34:36.364Z,99.90
2019-03-18T00:37:04.574Z,99.90
2019-03-18T00:39:32.486Z,99.90
2019-03-18T00:42:00.500Z,99.90
2019-03-18T00:44:28.494Z,99.90
2019-03-18T00:46:56.868Z,99.90
2019-03-18T00:49:25.101Z,99.90
2019-03-18T00:51:53.071Z,99.90
2019-03-18T00:54:21.050Z,99.90
2019-03-18T00:56:49.026Z,99.90
2019-03-18T00:59:16.998Z,99.90
2019-03-18T01:01:44.859Z,99.90
2019-03-18T01:04:12.846Z,99.90
2019-03-18T01:06:40.923Z,99.90
2019-03-18T01:09:09.213Z,99.90
2019-03-18T01:11:37.065Z,99.90
2019-03-18T01:14:05.339Z,99.90
2019-03-18T01:16:33.406Z,99.90
2019-03-18T01:19:01.431Z,99.90
2019-03-18T01:21:29.541Z,99.90
2019-03-18T01:23:57.406Z,99.90
2019-03-18T01:26:25.325Z,99.90
2019-03-18T01:28:53.573Z,99.90
2019-03-18T01:31:27.320Z,99.90
2019-03-18T01:33:55.435Z,99.90
2019-03-18T01:36:23.987Z,99.90
2019-03-18T01:38:51.956Z,99.90
2019-03-18T01:41:19.970Z,99.90
2019-03-18T01:43:47.914Z,99.90
2019-03-18T01:46:15.869Z,99.90
2019-03-18T01:48:43.743Z,99.90
2019-03-18T01:51:11.638Z,99.90
2019-03-18T01:53:39.614Z,99.90
2019-03-18T01:56:08.145Z,99.90
2019-03-18T01:58:36.036Z,99.90
2019-03-18T02:01:03.953Z,99.90
2019-03-18T02:03:32.137Z,99.90
2019-03-18T02:06:00.126Z,99.90
2019-03-18T02:08:28.170Z,99.90
2019-03-18T02:10:56.212Z,99.90
2019-03-18T02:13:24.248Z,99.90
2019-03-18T02:15:53.523Z,99.90
2019-03-18T02:18:21.907Z,99.90
2019-03-18T02:20:49.897Z,99.90
2019-03-18T02:23:17.766Z,99.90
2019-03-18T02:25:45.763Z,99.90
2019-03-18T02:28:13.617Z,99.90
2019-03-18T02:30:41.542Z,99.90
2019-03-18T02:33:09.754Z,99.90
2019-03-18T02:35:37.595Z,99.90
2019-03-18T02:38:05.635Z,99.90
2019-03-18T02:40:33.630Z,99.90
2019-03-18T02:43:01.481Z,99.90
2019-03-18T02:45:29.824Z,99.90
2019-03-18T02:47:57.715Z,99.90
2019-03-18T02:50:25.734Z,99.90
2019-03-18T02:52:53.662Z,99.90
2019-03-18T02:55:22.159Z,99.90
2019-03-18T02:57:51.280Z,99.90
2019-03-18T03:00:20.032Z,99.90
2019-03-18T03:02:48.068Z,99.90
2019-03-18T03:05:15.955Z,99.90
2019-03-18T03:07:43.905Z,99.90
2019-03-18T03:10:12.763Z,99.90
2019-03-18T03:12:40.772Z,99.90
2019-03-18T03:15:09.968Z,99.90
2019-03-18T03:17:37.970Z,99.90
2019-03-18T03:20:06.118Z,99.90
2019-03-18T03:22:34.542Z,99.90
2019-03-18T03:25:02.589Z,99.90
2019-03-18T03:27:30.648Z,99.90
2019-03-18T03:29:58.933Z,99.90
2019-03-18T03:32:26.966Z,99.90
2019-03-18T03:34:54.982Z,99.90
2019-03-18T03:37:23.611Z,99.90
2019-03-18T03:39:51.510Z,99.90
2019-03-18T03:42:20.272Z,99.90
2019-03-18T03:44:48.143Z,99.90
2019-03-18T03:47:16.422Z,99.90
2019-03-18T03:49:44.245Z,99.90
2019-03-18T03:52:12.224Z,99.90
2019-03-18T03:54:40.278Z,99.90
2019-03-18T03:57:08.276Z,99.90
2019-03-18T03:59:37.117Z,99.90
2019-03-18T04:02:05.292Z,99.90
2019-03-18T04:04:33.221Z,99.90
2019-03-18T04:07:01.198Z,99.90
2019-03-18T04:09:29.135Z,99.90
2019-03-18T04:11:57.486Z,99.90
2019-03-18T04:14:25.432Z,99.90
2019-03-18T04:17:01.578Z,99.90
2019-03-18T04:19:23.831Z,99.90
2019-03-18T04:21:51.809Z,99.90
2019-03-18T04:24:19.747Z,99.90
2019-03-18T04:26:48.072Z,99.90
2019-03-18T04:29:16.134Z,99.90
2019-03-18T04:31:44.664Z,99.90
2019-03-18T04:34:12.560Z,99.90
2019-03-18T04:36:40.445Z,99.90
2019-03-18T04:39:08.338Z,99.90
2019-03-18T04:41:36.294Z,99.90
2019-03-18T04:44:04.288Z,99.90
2019-03-18T04:46:32.218Z,99.90
2019-03-18T04:49:00.309Z,99.90
2019-03-18T04:51:28.717Z,99.90
2019-03-18T04:53:56.606Z,99.90
2019-03-18T04:56:24.575Z,99.90
2019-03-18T04:58:52.494Z,99.90
2019-03-18T05:01:20.523Z,99.90
2019-03-18T05:03:49.070Z,99.90
2019-03-18T05:06:17.037Z,99.90
2019-03-18T05:08:45.203Z,99.90
2019-03-18T05:11:13.183Z,99.90
2019-03-18T05:13:41.766Z,99.90
2019-03-18T05:16:09.775Z,99.90
2019-03-18T05:18:37.684Z,99.90
2019-03-18T05:21:05.629Z,99.90
2019-03-18T05:23:33.617Z,99.90
2019-03-18T05:26:01.632Z,99.90
2019-03-18T05:28:29.864Z,99.90
2019-03-18T05:30:57.916Z,99.90
2019-03-18T05:33:25.927Z,99.90
2019-03-18T05:35:54.154Z,99.90
2019-03-18T05:38:23.687Z,99.90
2019-03-18T05:40:51.846Z,99.90
2019-03-18T05:43:19.834Z,99.90
2019-03-18T05:45:48.322Z,99.90
2019-03-18T05:48:16.660Z,99.90
2019-03-18T05:50:44.624Z,99.90
2019-03-18T05:53:12.527Z,99.90
2019-03-18T05:55:40.583Z,99.90
2019-03-18T05:58:08.502Z,99.90
2019-03-18T06:00:36.515Z,99.90
2019-03-18T06:03:04.447Z,99.90
2019-03-18T06:05:32.516Z,99.90
2019-03-18T06:08:01.019Z,99.90
2019-03-18T06:10:29.012Z,99.90
2019-03-18T06:12:57.151Z,99.90
2019-03-18T06:15:25.537Z,99.90
2019-03-18T06:17:53.635Z,99.90
2019-03-18T06:20:21.663Z,99.90
2019-03-18T06:22:49.906Z,99.90
2019-03-18T06:25:17.858Z,99.90
2019-03-18T06:27:46.010Z,99.90
2019-03-18T06:30:13.904Z,99.90
2019-03-18T06:32:41.852Z,99.90
2019-03-18T06:35:09.819Z,99.90
2019-03-18T06:37:37.734Z,99.90
2019-03-18T06:40:06.616Z,99.90
2019-03-18T06:42:34.682Z,99.90
2019-03-18T06:45:04.856Z,99.90
2019-03-18T06:47:32.819Z,99.90
2019-03-18T06:50:00.833Z,99.90
2019-03-18T06:52:28.927Z,99.90
2019-03-18T06:54:56.837Z,99.90
2019-03-18T06:57:25.098Z,99.90
2019-03-18T06:59:53.081Z,99.90
2019-03-18T07:02:21.289Z,99.90
2019-03-18T07:04:49.435Z,99.90
2019-03-18T07:07:17.612Z,99.90
2019-03-18T07:09:45.699Z,99.90
2019-03-18T07:12:13.819Z,99.90
2019-03-18T07:14:41.774Z,99.90
2019-03-18T07:17:09.669Z,99.90
2019-03-18T07:19:37.936Z,99.90
2019-03-18T07:22:05.947Z,99.90
2019-03-18T07:24:33.903Z,99.90
2019-03-18T07:27:01.948Z,99.90
2019-03-18T07:29:30.015Z,99.90
2019-03-18T07:31:58.423Z,99.90
2019-03-18T07:34:26.736Z,99.90
2019-03-18T07:36:54.799Z,99.90
2019-03-18T07:39:22.761Z,99.90
2019-03-18T07:41:50.771Z,99.90
2019-03-18T07:44:18.851Z,99.90
2019-03-18T07:46:46.874Z,99.90
2019-03-18T07:49:14.916Z,99.90
2019-03-18T07:51:43.380Z,99.90
2019-03-18T07:54:11.330Z,99.90
2019-03-18T07:56:39.691Z,99.90
2019-03-18T07:59:07.831Z,99.90
2019-03-18T08:01:35.942Z,99.90
2019-03-18T08:04:04.299Z,99.90
2019-03-18T08:06:32.652Z,99.90
2019-03-18T08:09:00.871Z,99.90
2019-03-18T08:11:28.909Z,99.90
2019-03-18T08:13:56.988Z,99.90
2019-03-18T08:16:25.070Z,99.90
2019-03-18T08:18:53.182Z,99.90
2019-03-18T08:21:21.320Z,99.90
2019-03-18T08:23:49.355Z,99.90
2019-03-18T08:26:19.859Z,99.90
2019-03-18T08:28:47.793Z,99.90
2019-03-18T08:31:15.733Z,99.90
2019-03-18T08:33:44.104Z,99.90
2019-03-18T08:36:12.123Z,99.90
2019-03-18T08:38:40.150Z,99.90
2019-03-18T08:41:08.100Z,99.90
2019-03-18T08:43:36.066Z,99.90
2019-03-18T08:46:04.050Z,99.90
2019-03-18T08:48:32.435Z,99.90
2019-03-18T08:51:00.579Z,99.90
2019-03-18T08:53:28.549Z,99.90
2019-03-18T08:55:56.510Z,99.90
2019-03-18T08:58:24.920Z,99.90
2019-03-18T09:00:52.987Z,99.90
2019-03-18T09:03:20.990Z,99.90
2019-03-18T09:05:49.006Z,99.90
2019-03-18T09:08:17.224Z,99.90
2019-03-18T09:10:46.404Z,99.90
2019-03-18T09:13:14.308Z,99.90
2019-03-18T09:15:42.570Z,99.90
2019-03-18T09:18:10.767Z,99.90
2019-03-18T09:20:38.739Z,99.90
2019-03-18T09:23:06.954Z,99.90
2019-03-18T09:25:35.293Z,99.90
2019-03-18T09:28:03.304Z,99.90
2019-03-18T09:30:31.423Z,99.90
2019-03-18T09:32:59.520Z,99.90
2019-03-18T09:35:27.659Z,99.90
2019-03-18T09:37:55.757Z,99.90
2019-03-18T09:40:23.654Z,99.90
2019-03-18T09:42:51.781Z,99.90
2019-03-18T09:45:19.767Z,99.90
2019-03-18T09:47:47.668Z,99.90
2019-03-18T09:50:15.807Z,99.90
2019-03-18T09:52:43.775Z,99.90
2019-03-18T09:55:12.309Z,99.90
2019-03-18T09:57:40.334Z,99.90
2019-03-18T10:00:08.666Z,99.90
2019-03-18T10:02:37.164Z,99.90
2019-03-18T10:05:05.357Z,99.90
2019-03-18T10:07:33.471Z,99.90
2019-03-18T10:10:01.565Z,99.90
2019-03-18T10:12:29.533Z,99.90
2019-03-18T10:14:59.030Z,99.90
2019-03-18T10:17:27.575Z,98.90
2019-03-18T10:19:55.616Z,99.90
2019-03-18T10:22:23.595Z,99.30
2019-03-18T10:24:51.597Z,99.70
2019-03-18T10:27:19.632Z,98.50
2019-03-18T10:29:47.742Z,98.50
2019-03-18T10:32:15.780Z,98.30
2019-03-18T10:34:43.876Z,99.10
2019-03-18T10:37:12.431Z,99.90
2019-03-18T10:39:41.799Z,99.90
2019-03-18T10:42:09.891Z,99.90
2019-03-18T10:44:38.081Z,99.90
2019-03-18T10:47:06.316Z,99.90
2019-03-18T10:49:45.454Z,99.90
2019-03-18T10:52:04.842Z,99.90
2019-03-18T10:54:32.988Z,99.90
2019-03-18T10:57:01.056Z,99.90
2019-03-18T10:59:29.129Z,99.90
2019-03-18T11:01:58.449Z,99.90
2019-03-18T11:04:26.431Z,99.90
2019-03-18T11:06:54.390Z,99.90
2019-03-18T11:09:22.846Z,99.90
2019-03-18T11:11:50.851Z,99.90
2019-03-18T11:14:18.931Z,99.90
2019-03-18T11:16:47.277Z,99.90
2019-03-18T11:19:15.547Z,99.90
2019-03-18T11:21:43.951Z,99.90
2019-03-18T11:24:11.942Z,99.90
2019-03-18T11:26:40.260Z,99.90
2019-03-18T11:29:08.302Z,99.90
2019-03-18T11:31:36.298Z,99.90
2019-03-18T11:34:04.205Z,99.90
2019-03-18T11:36:32.451Z,99.90
2019-03-18T11:39:00.385Z,99.90
2019-03-18T11:41:28.432Z,99.90
2019-03-18T11:43:56.357Z,99.90
2019-03-18T11:46:24.458Z,99.90
2019-03-18T11:48:52.294Z,99.90
2019-03-18T11:51:20.275Z,99.90
2019-03-18T11:53:48.136Z,97.80
2019-03-18T11:56:16.610Z,98.20
2019-03-18T11:58:44.651Z,92.40
2019-03-18T12:01:12.524Z,91.70
2019-03-18T12:03:40.570Z,89.20
2019-03-18T12:06:08.559Z,86.30
2019-03-18T12:08:36.398Z,87.10
2019-03-18T12:11:04.466Z,92.00
2019-03-18T12:13:32.459Z,92.80
2019-03-18T12:16:00.699Z,91.40
2019-03-18T12:18:28.822Z,92.00
2019-03-18T12:20:56.818Z,89.00
2019-03-18T12:23:24.855Z,81.00
2019-03-18T12:25:52.978Z,85.10
2019-03-18T12:28:22.113Z,79.30
2019-03-18T12:30:50.463Z,74.70
2019-03-18T12:33:18.524Z,68.60
2019-03-18T12:35:46.606Z,67.00
2019-03-18T12:38:14.814Z,66.00
2019-03-18T12:40:42.797Z,66.40
2019-03-18T12:43:10.875Z,66.50
2019-03-18T12:45:39.071Z,64.40
2019-03-18T12:48:07.621Z,64.90
2019-03-18T12:50:53.902Z,64.70
2019-03-18T12:53:05.863Z,65.10
2019-03-18T12:55:34.508Z,65.50
2019-03-18T12:58:02.503Z,65.00
2019-03-18T13:00:31.051Z,65.20
2019-03-18T13:02:59.189Z,65.40
2019-03-18T13:05:27.469Z,65.00
2019-03-18T13:07:55.571Z,66.50
2019-03-18T13:10:23.530Z,68.50
2019-03-18T13:12:51.518Z,71.00
2019-03-18T13:15:23.215Z,71.80
2019-03-18T13:17:51.740Z,75.00
2019-03-18T13:20:20.134Z,72.60
2019-03-18T13:22:48.586Z,70.20
2019-03-18T13:25:16.572Z,68.30
2019-03-18T13:27:45.083Z,68.50
2019-03-18T13:30:16.478Z,72.40
2019-03-18T13:32:44.572Z,71.90
2019-03-18T13:35:13.563Z,74.40
2019-03-18T13:37:41.698Z,77.30
2019-03-18T13:40:10.724Z,77.80
2019-03-18T13:42:38.908Z,68.30
2019-03-18T13:45:10.003Z,68.70
2019-03-18T13:47:38.582Z,67.80
2019-03-18T13:50:09.219Z,67.10
2019-03-18T13:52:37.702Z,66.70
2019-03-18T13:55:05.958Z,66.90
2019-03-18T13:57:34.096Z,64.30
2019-03-18T14:00:02.232Z,62.50
2019-03-18T14:02:30.503Z,64.20
2019-03-18T14:05:16.829Z,64.60
2019-03-18T14:07:45.345Z,66.00
2019-03-18T14:10:14.495Z,65.30
2019-03-18T14:12:43.626Z,66.70
2019-03-18T14:15:13.749Z,67.10
2019-03-18T14:17:42.013Z,65.80
2019-03-18T14:20:12.648Z,65.70
2019-03-18T14:22:40.678Z,65.90
2019-03-18T14:25:08.773Z,68.60
2019-03-18T14:27:36.734Z,70.00
2019-03-18T14:30:07.335Z,71.60
2019-03-18T14:32:36.096Z,75.40
2019-03-18T14:35:04.909Z,75.30
2019-03-18T14:37:33.036Z,75.20
2019-03-18T14:40:01.204Z,75.20
2019-03-18T14:42:29.275Z,83.50
2019-03-18T14:44:57.113Z,95.30
2019-03-18T14:47:25.039Z,99.90
2019-03-18T14:49:52.954Z,99.90
2019-03-18T14:52:21.086Z,99.90
2019-03-18T14:54:49.481Z,99.90
2019-03-18T14:57:18.013Z,99.90
2019-03-18T14:59:47.333Z,99.90
2019-03-18T15:02:15.515Z,99.90
2019-03-18T15:04:43.604Z,99.90
2019-03-18T15:07:11.770Z,99.90
2019-03-18T15:09:39.853Z,96.20
2019-03-18T15:12:08.538Z,93.40
2019-03-18T15:14:37.111Z,91.20
2019-03-18T15:17:05.177Z,81.40
2019-03-18T15:19:34.469Z,82.20
2019-03-18T15:22:02.537Z,75.50
2019-03-18T15:24:30.605Z,71.60
2019-03-18T15:26:59.299Z,72.10
2019-03-18T15:29:27.390Z,66.10
2019-03-18T15:31:55.521Z,64.50
2019-03-18T15:34:23.692Z,65.10
2019-03-18T15:36:51.725Z,63.50
2019-03-18T15:39:19.717Z,62.60
2019-03-18T15:41:48.021Z,61.50
2019-03-18T15:44:15.921Z,61.90
2019-03-18T15:46:44.335Z,63.00
2019-03-18T15:49:13.050Z,63.30
2019-03-18T15:51:41.063Z,64.90
2019-03-18T15:54:09.149Z,64.50
2019-03-18T15:56:37.273Z,65.10
2019-03-18T15:59:05.276Z,65.50
2019-03-18T16:01:33.349Z,65.90
2019-03-18T16:04:01.662Z,66.00
2019-03-18T16:06:29.878Z,64.60
2019-03-18T16:08:58.390Z,62.80
2019-03-18T16:11:26.802Z,61.40
2019-03-18T16:13:55.022Z,62.00
2019-03-18T16:16:23.256Z,62.50
2019-03-18T16:18:51.333Z,63.50
2019-03-18T16:21:19.838Z,63.70
2019-03-18T16:23:47.835Z,65.60
2019-03-18T16:26:15.810Z,65.60
2019-03-18T16:28:44.334Z,66.50
2019-03-18T16:31:12.571Z,70.00
2019-03-18T16:33:40.541Z,71.40
2019-03-18T16:36:09.149Z,72.20
2019-03-18T16:38:37.253Z,73.60
2019-03-18T16:41:05.749Z,75.90
2019-03-18T16:43:33.800Z,78.50
2019-03-18T16:46:02.487Z,80.10
2019-03-18T16:48:30.530Z,75.60
2019-03-18T16:50:58.604Z,76.20
2019-03-18T16:53:26.747Z,75.60
2019-03-18T16:55:55.257Z,74.80
2019-03-18T16:58:23.253Z,74.50
2019-03-18T17:00:51.715Z,73.40
2019-03-18T17:03:19.618Z,73.40
2019-03-18T17:05:47.617Z,72.80
2019-03-18T17:08:16.196Z,71.30
2019-03-18T17:10:44.189Z,67.70
2019-03-18T17:13:12.475Z,69.60
2019-03-18T17:15:41.151Z,71.10
2019-03-18T17:18:09.426Z,74.10
2019-03-18T17:20:42.902Z,70.40
2019-03-18T17:23:10.972Z,72.10
2019-03-18T17:25:39.199Z,72.70
2019-03-18T17:28:07.332Z,70.00
2019-03-18T17:30:35.559Z,70.20
2019-03-18T17:33:03.677Z,72.20
2019-03-18T17:35:31.672Z,72.50
2019-03-18T17:37:59.723Z,80.60
2019-03-18T17:40:27.679Z,75.30
2019-03-18T17:42:55.798Z,75.30
2019-03-18T17:45:23.948Z,75.90
2019-03-18T17:47:51.944Z,78.30
2019-03-18T17:50:19.990Z,80.60
2019-03-18T17:53:00.938Z,81.70
2019-03-18T17:55:18.497Z,82.20
2019-03-18T17:57:46.596Z,81.30
2019-03-18T18:00:22.631Z,82.30
2019-03-18T18:02:52.726Z,83.70
2019-03-18T18:05:20.904Z,85.00
2019-03-18T18:07:48.976Z,86.10
2019-03-18T18:10:17.296Z,90.80
2019-03-18T18:12:45.597Z,95.00
2019-03-18T18:15:13.883Z,95.10
2019-03-18T18:17:41.823Z,95.30
2019-03-18T18:20:10.426Z,95.50
2019-03-18T18:22:40.990Z,97.70
2019-03-18T18:25:08.947Z,99.60
2019-03-18T18:27:37.937Z,99.90
2019-03-18T18:30:07.388Z,99.90
2019-03-18T18:32:36.130Z,99.90
2019-03-18T18:35:06.037Z,99.90
2019-03-18T18:37:37.753Z,99.90
2019-03-18T18:40:07.119Z,99.90
2019-03-18T18:42:35.345Z,99.90
2019-03-18T18:45:04.686Z,99.90
2019-03-18T18:47:32.877Z,99.90
2019-03-18T18:50:01.558Z,99.90
2019-03-18T18:52:29.515Z,99.90
2019-03-18T18:54:57.498Z,99.90
2019-03-18T18:57:25.533Z,99.90
2019-03-18T18:59:53.491Z,99.90
2019-03-18T19:02:21.645Z,99.90
2019-03-18T19:04:49.514Z,99.90
2019-03-18T19:07:17.521Z,99.90
2019-03-18T19:09:45.639Z,99.90
2019-03-18T19:12:13.842Z,99.90
2019-03-18T19:14:41.767Z,99.90
2019-03-18T19:17:10.152Z,99.90
2019-03-18T19:19:38.365Z,99.90
2019-03-18T19:22:06.698Z,99.90
2019-03-18T19:24:34.906Z,99.90
2019-03-18T19:27:03.026Z,99.90
2019-03-18T19:29:31.020Z,99.90
2019-03-18T19:31:59.626Z,99.90
2019-03-18T19:34:27.712Z,99.90
2019-03-18T19:36:56.027Z,99.90
2019-03-18T19:39:24.349Z,99.90
2019-03-18T19:41:52.811Z,99.90
2019-03-18T19:44:21.360Z,99.90
2019-03-18T19:46:51.918Z,99.90
2019-03-18T19:49:19.939Z,99.90
2019-03-18T19:51:47.883Z,99.90
2019-03-18T19:54:16.334Z,99.90
2019-03-18T19:56:44.758Z,99.90
2019-03-18T19:59:12.886Z,99.90
2019-03-18T20:01:40.903Z,99.90
2019-03-18T20:04:09.626Z,99.90
2019-03-18T20:06:38.691Z,99.90
2019-03-18T20:09:07.995Z,99.90
2019-03-18T20:11:36.459Z,99.90
2019-03-18T20:14:05.012Z,99.90
2019-03-18T20:16:33.914Z,99.90
2019-03-18T20:19:02.337Z,99.90
2019-03-18T20:21:30.404Z,99.90
2019-03-18T20:24:01.090Z,99.90
2019-03-18T20:26:30.289Z,99.90
2019-03-18T20:28:59.174Z,99.90
2019-03-18T20:31:27.403Z,99.90
2019-03-18T20:33:55.582Z,99.90
2019-03-18T20:36:24.030Z,99.90
2019-03-18T20:38:52.473Z,99.90
2019-03-18T20:41:24.149Z,99.90
2019-03-18T20:43:53.058Z,99.90
2019-03-18T20:46:24.898Z,99.90
2019-03-18T20:48:53.364Z,99.90
2019-03-18T20:51:21.764Z,99.90
2019-03-18T20:53:52.249Z,99.90
2019-03-18T20:56:20.446Z,99.90
2019-03-18T20:58:49.887Z,99.90
2019-03-18T21:01:18.587Z,99.90
2019-03-18T21:03:46.773Z,99.90
2019-03-18T21:06:14.950Z,99.90
2019-03-18T21:08:43.055Z,99.90
2019-03-18T21:11:12.906Z,99.90
2019-03-18T21:13:41.616Z,99.90
2019-03-18T21:16:10.104Z,99.90
2019-03-18T21:18:39.111Z,99.90
2019-03-18T21:21:07.449Z,99.90
2019-03-18T21:23:35.764Z,99.90
2019-03-18T21:26:03.791Z,99.90
2019-03-18T21:28:40.837Z,99.90
2019-03-18T21:31:02.855Z,99.90
2019-03-18T21:33:31.649Z,99.90
2019-03-18T21:35:59.907Z,99.90
2019-03-18T21:38:27.947Z,99.90
2019-03-18T21:40:57.438Z,99.90
2019-03-18T21:43:25.975Z,99.90
2019-03-18T21:45:54.386Z,99.90
2019-03-18T21:48:22.851Z,99.90
2019-03-18T21:50:50.793Z,99.90
2019-03-18T21:53:19.249Z,99.90
2019-03-18T21:55:47.243Z,99.90
2019-03-18T21:58:15.225Z,99.90
2019-03-18T22:00:43.567Z,99.90
2019-03-18T22:03:11.608Z,99.90
2019-03-18T22:05:40.985Z,99.90
2019-03-18T22:08:09.179Z,99.90
2019-03-18T22:10:38.036Z,99.90
2019-03-18T22:13:06.291Z,99.90
2019-03-18T22:15:34.142Z,99.90
2019-03-18T22:18:02.294Z,99.90
2019-03-18T22:20:30.730Z,99.90
2019-03-18T22:22:58.878Z,99.90
2019-03-18T22:25:27.043Z,99.90
2019-03-18T22:27:55.590Z,99.90
2019-03-18T22:30:23.547Z,99.90
2019-03-18T22:32:51.417Z,99.90
2019-03-18T22:35:19.442Z,99.90
2019-03-18T22:37:47.430Z,99.90
2019-03-18T22:40:15.809Z,99.90
2019-03-18T22:42:43.952Z,99.90
2019-03-18T22:45:12.023Z,99.90
2019-03-18T22:47:40.266Z,99.90
2019-03-18T22:50:08.695Z,99.90
2019-03-18T22:52:36.759Z,99.90
2019-03-18T22:55:06.469Z,99.90
2019-03-18T22:57:34.382Z,99.90
2019-03-18T23:00:03.026Z,99.90
2019-03-18T23:02:31.012Z,99.90
2019-03-18T23:04:59.222Z,99.90
2019-03-18T23:07:27.486Z,99.90
2019-03-18T23:09:55.516Z,99.90
2019-03-18T23:12:23.805Z,99.90
2019-03-18T23:14:51.992Z,99.90
2019-03-18T23:17:20.157Z,99.90
2019-03-18T23:19:48.192Z,99.90
2019-03-18T23:22:16.280Z,99.90
2019-03-18T23:24:44.373Z,99.90
2019-03-18T23:27:12.541Z,99.90
2019-03-18T23:29:40.521Z,99.90
2019-03-18T23:32:08.755Z,99.90
2019-03-18T23:34:36.934Z,99.90
2019-03-18T23:37:06.499Z,99.90
2019-03-18T23:39:34.632Z,99.90
2019-03-18T23:42:02.905Z,99.90
2019-03-18T23:44:31.321Z,99.90
2019-03-18T23:46:59.309Z,99.90
2019-03-18T23:49:28.423Z,99.90
2019-03-18T23:51:56.913Z,99.90
2019-03-18T23:54:24.956Z,99.90
2019-03-18T23:56:53.506Z,99.90
2019-03-18T23:59:22.126Z,99.90
